Time;durP1;ratioP1;P1;durP2;ratioP2;P2;SDS_P1;SDS_P2;PMS_P1;PMS_P2;Temp;Humidity;BMP_temperature;BMP_pressure;BME280_temperature;BME280_humidity;BME280_pressure;Samples;Min_cycle;Max_cycle;Signal;HPM_P1;HPM_P2
2021/09/13 00:08:41;;;;;;;18.50;12.90;;;;;;;17.77;77.48;98599.48;457600;1193;108880;-43
2021/09/13 00:18:44;;;;;;;13.80;12.10;;;;;;;17.74;77.44;98600.09;457816;1199;107188;-42
2021/09/13 00:28:48;;;;;;;16.70;12.40;;;;;;;17.59;77.43;98602.17;457584;1192;95947;-42
2021/09/13 00:38:53;;;;;;;19.50;13.90;;;;;;;17.40;77.64;98603.00;457783;1199;95935;-42
2021/09/13 00:48:57;;;;;;;17.70;13.90;;;;;;;17.38;78.08;98608.90;457871;1199;108249;-42
2021/09/13 00:59:01;;;;;;;16.30;13.40;;;;;;;17.57;78.16;98614.06;458002;1199;96721;-41
2021/09/13 01:09:05;;;;;;;20.30;16.10;;;;;;;17.56;78.08;98610.64;457736;1200;96589;-41
2021/09/13 01:19:09;;;;;;;17.30;15.40;;;;;;;17.36;78.17;98598.81;457552;1192;108610;-41
2021/09/13 01:29:12;;;;;;;20.40;15.40;;;;;;;17.33;78.40;98592.79;457852;1199;95121;-42
2021/09/13 01:39:16;;;;;;;18.30;16.10;;;;;;;17.35;78.47;98585.46;457760;1199;108535;-41
2021/09/13 01:49:20;;;;;;;22.30;16.20;;;;;;;17.45;78.66;98587.27;457429;1199;95050;-41
2021/09/13 01:59:23;;;;;;;21.00;17.10;;;;;;;17.48;78.76;98589.08;457695;1192;109602;-42
2021/09/13 02:09:27;;;;;;;20.00;15.60;;;;;;;17.49;78.67;98585.27;457810;1199;108093;-42
2021/09/13 02:19:30;;;;;;;21.40;16.50;;;;;;;17.48;78.72;98589.92;457748;1199;95935;-41
2021/09/13 02:29:34;;;;;;;19.90;16.20;;;;;;;17.47;78.90;98591.96;457789;1199;109149;-42
2021/09/13 02:39:38;;;;;;;19.80;16.20;;;;;;;17.60;79.03;98597.52;457951;1199;95896;-42
2021/09/13 02:49:42;;;;;;;27.40;15.60;;;;;;;17.57;78.88;98604.27;457884;1199;109302;-42
2021/09/13 02:59:47;;;;;;;19.70;14.20;;;;;;;17.58;78.89;98604.59;458014;1192;107319;-41
2021/09/13 03:09:50;;;;;;;19.40;14.30;;;;;;;17.49;78.72;98605.16;457716;1199;96297;-42
2021/09/13 03:19:54;;;;;;;19.90;14.40;;;;;;;17.26;78.78;98602.38;457761;1191;108372;-42
2021/09/13 03:29:58;;;;;;;17.50;13.80;;;;;;;17.24;78.99;98601.79;457996;1199;95901;-43
2021/09/13 03:40:01;;;;;;;18.90;14.60;;;;;;;17.24;78.83;98607.93;457933;1192;111463;-40
2021/09/13 03:50:05;;;;;;;18.20;14.30;;;;;;;17.23;79.12;98608.42;457674;1192;108418;-42
2021/09/13 04:00:11;;;;;;;18.70;14.70;;;;;;;17.28;79.19;98610.02;457925;1192;95963;-40
2021/09/13 04:20:21;;;;;;;20.90;15.60;;;;;;;17.38;79.09;98606.51;457964;1199;95872;-40
2021/09/13 04:30:25;;;;;;;21.30;15.50;;;;;;;17.36;79.11;98612.55;457523;1199;109535;-45
2021/09/13 04:40:29;;;;;;;18.80;15.20;;;;;;;17.29;78.88;98618.09;458075;1191;95914;-42
2021/09/13 04:50:32;;;;;;;17.50;15.20;;;;;;;17.29;79.16;98617.98;457975;1199;95863;-41
2021/09/13 05:00:36;;;;;;;20.20;16.40;;;;;;;17.37;79.21;98624.84;457754;1199;109299;-41
2021/09/13 05:10:40;;;;;;;20.70;16.40;;;;;;;17.36;78.99;98628.75;457747;1192;107537;-42
2021/09/13 05:20:43;;;;;;;22.20;17.80;;;;;;;17.42;78.90;98639.99;458135;1199;95931;-41
2021/09/13 05:40:51;;;;;;;21.80;16.10;;;;;;;18.25;79.41;98646.67;457970;1192;96460;-41
2021/09/13 05:50:55;;;;;;;22.40;18.00;;;;;;;19.41;78.85;98648.38;458096;1192;108840;-40
2021/09/13 06:00:59;;;;;;;28.70;19.80;;;;;;;19.73;77.93;98653.96;458246;1192;97655;-41
2021/09/13 06:11:03;;;;;;;24.20;18.20;;;;;;;19.57;77.45;98657.16;457838;1199;97620;-40
2021/09/13 06:21:06;;;;;;;23.80;19.60;;;;;;;19.46;77.17;98666.40;458145;1192;110735;-40
2021/09/13 06:31:11;;;;;;;22.20;19.50;;;;;;;19.42;77.20;98675.73;458114;1200;108311;-41
2021/09/13 06:41:15;;;;;;;24.00;20.00;;;;;;;19.56;77.47;98670.41;458050;1200;96786;-41
2021/09/13 06:51:18;;;;;;;24.60;21.90;;;;;;;19.71;77.34;98664.94;457655;1192;108290;-41
2021/09/13 07:01:22;;;;;;;22.70;20.00;;;;;;;20.89;77.49;98663.60;457836;1200;97643;-40
2021/09/13 07:11:27;;;;;;;20.60;18.60;;;;;;;21.71;76.20;98671.21;457901;1200;97878;-40
2021/09/13 07:31:35;;;;;;;20.40;18.30;;;;;;;22.55;74.69;98680.06;457823;1199;97859;-43
2021/09/13 07:41:38;;;;;;;12.80;11.50;;;;;;;22.22;74.06;98682.09;458011;1192;96446;-42
2021/09/13 07:51:42;;;;;;;13.50;12.30;;;;;;;22.36;73.65;98686.61;457880;1199;108429;-42
2021/09/13 08:01:46;;;;;;;14.40;10.20;;;;;;;22.46;73.28;98693.75;457778;1199;97676;-42
2021/09/13 08:11:50;;;;;;;16.40;11.70;;;;;;;22.75;72.98;98697.89;457947;1199;97650;-41
2021/09/13 08:21:54;;;;;;;8.30;7.40;;;;;;;23.47;72.05;98700.64;457941;1199;108629;-41
2021/09/13 08:31:58;;;;;;;16.20;14.50;;;;;;;23.86;71.30;98708.20;458001;1192;97920;-41
2021/09/13 08:42:00;;;;;;;22.90;16.70;;;;;;;24.03;70.83;98710.27;457928;1197;97798;-41
2021/09/13 08:52:05;;;;;;;11.40;10.20;;;;;;;24.47;69.68;98710.04;457942;1199;108136;-43
2021/09/13 09:02:15;;;;;;;10.50;9.30;;;;;;;24.64;68.32;98713.80;457638;1199;97656;-41
2021/09/13 09:12:54;;;;;;;11.20;10.10;;;;;;;23.55;67.20;98721.02;457966;1191;97636;-44
2021/09/13 09:43:13;;;;;;;9.40;8.20;;;;;;;22.67;67.38;98726.62;457860;1192;108449;-41
2021/09/13 09:53:18;;;;;;;12.20;7.00;;;;;;;22.72;67.65;98720.58;457897;1199;97694;-42
2021/09/13 10:03:34;;;;;;;9.20;8.30;;;;;;;22.87;67.36;98719.45;457940;1192;109597;-41
2021/09/13 10:13:40;;;;;;;9.10;8.30;;;;;;;22.72;67.18;98725.05;457890;1199;97463;-41
2021/09/13 10:23:45;;;;;;;10.80;9.00;;;;;;;22.59;67.10;98724.10;458002;1199;110877;-40
2021/09/13 10:33:57;;;;;;;9.80;8.90;;;;;;;22.97;67.17;98719.10;458052;1199;108402;-42
2021/09/13 10:44:07;;;;;;;12.10;8.60;;;;;;;23.24;66.82;98712.97;458164;1192;108445;-42
2021/09/13 10:54:17;;;;;;;9.50;8.50;;;;;;;23.15;66.40;98712.93;458087;1199;97359;-42
2021/09/13 11:04:21;;;;;;;8.40;7.20;;;;;;;23.15;66.20;98710.07;458129;1192;97216;-40
2021/09/13 11:14:25;;;;;;;11.00;8.40;;;;;;;23.58;65.81;98706.55;457973;1193;108386;-42
2021/09/13 11:24:31;;;;;;;10.20;8.20;;;;;;;23.88;65.62;98710.83;457819;1200;97951;-41
2021/09/13 11:34:37;;;;;;;10.10;8.50;;;;;;;23.85;64.95;98710.18;458014;1195;98183;-44
2021/09/13 11:44:40;;;;;;;9.80;8.90;;;;;;;23.08;64.96;98720.20;457989;1200;108647;-41
2021/09/13 11:54:44;;;;;;;10.30;9.40;;;;;;;22.09;65.28;98729.01;457875;1200;97792;-41
2021/09/13 12:04:48;;;;;;;10.70;9.70;;;;;;;21.55;66.06;98737.89;457853;1200;97650;-40
2021/09/13 12:14:52;;;;;;;11.00;8.70;;;;;;;20.98;66.65;98737.40;458102;1200;108443;-42
2021/09/13 12:24:55;;;;;;;10.10;9.10;;;;;;;20.69;67.41;98724.27;457988;1192;97229;-41
2021/09/13 12:34:59;;;;;;;10.80;8.10;;;;;;;21.23;68.14;98712.18;457848;1192;108492;-41
2021/09/13 12:45:05;;;;;;;9.70;8.70;;;;;;;21.70;67.99;98718.49;457988;1192;97663;-41
2021/09/13 12:55:20;;;;;;;8.80;7.90;;;;;;;22.00;67.93;98711.00;458230;1192;97650;-42
2021/09/13 13:05:34;;;;;;;6.70;5.80;;;;;;;21.76;67.03;98713.95;457831;1199;110806;-41
2021/09/13 13:15:39;;;;;;;5.80;5.40;;;;;;;21.37;66.83;98714.73;458121;1192;108145;-42
2021/09/13 13:25:56;;;;;;;6.10;5.50;;;;;;;21.75;66.63;98705.31;458069;1192;97765;-41
2021/09/13 13:36:01;;;;;;;9.20;6.40;;;;;;;22.08;66.40;98702.41;457837;1192;110813;-42
2021/09/13 13:46:04;;;;;;;8.00;6.90;;;;;;;21.71;65.61;98705.34;458094;1199;98325;-40
2021/09/13 13:56:10;;;;;;;8.80;7.10;;;;;;;21.75;64.38;98703.95;458087;1192;97669;-43
2021/09/13 14:06:14;;;;;;;13.70;6.40;;;;;;;21.70;63.01;98702.55;457685;1197;97940;-41
2021/09/13 14:16:18;;;;;;;6.90;6.20;;;;;;;21.66;61.70;98703.13;458175;1192;97668;-41
2021/09/13 14:26:23;;;;;;;7.90;6.60;;;;;;;21.59;61.71;98696.55;458193;1200;108515;-41
2021/09/13 14:36:27;;;;;;;6.70;6.10;;;;;;;21.52;61.43;98694.48;457793;1193;97655;-41
2021/09/13 14:46:30;;;;;;;6.40;5.80;;;;;;;21.40;60.91;98695.46;457931;1197;97675;-42
2021/09/13 14:56:35;;;;;;;6.00;5.40;;;;;;;21.26;59.94;98701.09;458091;1200;108508;-43
2021/09/13 15:06:39;;;;;;;4.70;4.30;;;;;;;21.26;60.11;98698.45;457794;1199;97636;-41
2021/09/13 15:16:42;;;;;;;5.10;4.60;;;;;;;21.32;59.80;98700.31;458119;1196;97978;-40
2021/09/13 15:26:47;;;;;;;7.30;5.90;;;;;;;21.30;59.71;98695.88;458165;1197;108382;-41
2021/09/13 15:36:50;;;;;;;8.50;6.60;;;;;;;21.16;59.73;98698.36;457590;1192;97659;-42
2021/09/13 15:56:57;;;;;;;15.80;10.70;;;;;;;20.60;60.64;98706.96;457771;1196;108552;-42
2021/09/13 16:07:01;;;;;;;19.20;10.80;;;;;;;20.36;61.38;98707.52;457571;1201;97771;-41
2021/09/13 16:17:07;;;;;;;14.00;9.50;;;;;;;20.29;61.93;98714.75;457820;1200;97380;-41
2021/09/13 16:27:11;;;;;;;26.50;17.80;;;;;;;20.21;62.56;98725.27;457961;1195;108444;-42
2021/09/13 16:37:15;;;;;;;20.10;11.30;;;;;;;20.02;63.05;98729.80;457569;1200;97675;-43
2021/09/13 16:47:19;;;;;;;18.50;10.40;;;;;;;19.63;63.21;98731.11;457793;1193;97265;-42
2021/09/13 16:57:23;;;;;;;15.00;11.00;;;;;;;19.28;63.40;98729.81;457860;1201;108503;-42
2021/09/13 17:07:27;;;;;;;16.20;9.20;;;;;;;19.00;63.96;98730.35;457318;1201;97638;-43
2021/09/13 17:17:31;;;;;;;17.00;10.40;;;;;;;18.60;64.73;98735.90;457985;1193;108932;-42
2021/09/13 17:27:35;;;;;;;15.20;9.40;;;;;;;18.30;65.45;98735.77;457802;1201;97673;-42
2021/09/13 17:37:41;;;;;;;16.50;11.60;;;;;;;18.08;66.19;98737.55;457700;1200;110709;-41
2021/09/13 17:47:45;;;;;;;28.60;18.80;;;;;;;17.63;66.59;98749.06;457869;1193;97679;-42
2021/09/13 17:57:48;;;;;;;24.60;16.30;;;;;;;17.34;67.17;98759.02;457703;1200;97900;-42
2021/09/13 18:17:56;;;;;;;21.00;14.40;;;;;;;16.61;68.32;98772.27;457915;1192;108453;-40
2021/09/13 18:27:59;;;;;;;22.60;12.50;;;;;;;16.43;68.75;98778.31;457978;1192;97239;-41
2021/09/13 18:38:03;;;;;;;25.80;12.90;;;;;;;16.27;69.41;98778.31;457650;1192;108336;-41
2021/09/13 18:58:11;;;;;;;18.20;12.90;;;;;;;16.11;70.14;98791.98;457823;1200;110094;-41
2021/09/13 19:08:15;;;;;;;31.30;14.70;;;;;;;15.98;70.40;98799.77;457649;1197;108279;-41
2021/09/13 19:18:19;;;;;;;34.50;19.60;;;;;;;15.66;70.44;98809.73;458163;1192;97644;-41
2021/09/13 19:28:22;;;;;;;33.30;18.60;;;;;;;15.40;70.90;98812.77;457417;1201;97692;-43
2021/09/13 19:38:26;;;;;;;38.00;21.70;;;;;;;15.15;71.28;98818.27;457798;1200;106915;-41
2021/09/13 19:48:29;;;;;;;34.40;18.90;;;;;;;14.99;71.56;98822.41;457649;1200;97659;-41
2021/09/13 19:58:33;;;;;;;30.70;17.70;;;;;;;14.91;72.09;98823.88;457736;1200;108536;-41
2021/09/13 20:08:37;;;;;;;25.80;16.40;;;;;;;14.80;72.06;98824.09;458006;1192;97246;-43
2021/09/13 20:18:45;;;;;;;25.10;14.10;;;;;;;14.69;72.57;98829.31;457743;1196;110723;-40
2021/09/13 20:28:49;;;;;;;22.10;14.70;;;;;;;14.66;72.81;98838.81;457634;1192;106375;-42
2021/09/13 20:38:56;;;;;;;26.90;15.40;;;;;;;14.66;72.98;98843.22;458036;1192;97299;-41
2021/09/13 20:49:00;;;;;;;23.60;16.90;;;;;;;14.70;73.13;98850.67;457881;1192;108474;-42
2021/09/13 20:59:04;;;;;;;21.90;16.20;;;;;;;14.63;73.39;98849.05;457895;1200;97641;-41
2021/09/13 21:09:07;;;;;;;24.40;15.80;;;;;;;14.56;73.56;98835.56;457768;1192;97676;-41
2021/09/13 21:19:11;;;;;;;19.80;14.40;;;;;;;14.77;74.05;98831.57;457776;1199;108393;-42
2021/09/13 21:29:14;;;;;;;26.10;14.60;;;;;;;15.00;74.36;98837.48;457941;1200;96343;-42
2021/09/13 21:39:18;;;;;;;24.30;14.20;;;;;;;15.23;74.43;98845.30;457472;1200;111361;-41
2021/09/13 21:49:23;;;;;;;18.60;12.70;;;;;;;15.28;74.44;98846.98;457795;1200;108305;-41
2021/09/13 21:59:27;;;;;;;21.40;13.70;;;;;;;15.31;74.50;98845.23;457898;1199;97286;-41
2021/09/13 22:09:31;;;;;;;20.20;12.30;;;;;;;15.38;74.74;98852.16;457735;1194;108284;-43
2021/09/13 22:19:35;;;;;;;20.80;11.30;;;;;;;15.59;75.05;98853.41;457398;1193;96318;-41
2021/09/13 22:29:39;;;;;;;15.30;11.90;;;;;;;15.54;75.06;98855.16;457829;1199;110672;-41
2021/09/13 22:39:43;;;;;;;16.20;11.40;;;;;;;15.58;75.38;98865.86;458126;1192;108326;-42
2021/09/13 22:49:47;;;;;;;17.50;11.20;;;;;;;15.75;75.47;98865.89;457932;1199;96339;-42
2021/09/13 22:59:50;;;;;;;22.50;13.80;;;;;;;15.73;75.29;98866.36;457925;1192;108515;-42
2021/09/13 23:09:54;;;;;;;26.60;16.30;;;;;;;15.65;75.43;98865.73;457661;1199;97643;-43
2021/09/13 23:30:02;;;;;;;24.00;15.00;;;;;;;15.34;75.52;98867.17;458013;1199;108234;-42
2021/09/13 23:40:08;;;;;;;19.50;14.50;;;;;;;15.31;75.62;98863.25;457712;1199;97211;-42
2021/09/13 23:50:12;;;;;;;25.00;14.80;;;;;;;15.26;75.64;98860.82;457949;1194;110799;-40
